Time;durP1;ratioP1;P1;durP2;ratioP2;P2;SDS_P1;SDS_P2;PMS_P1;PMS_P2;Temp;Humidity;BMP_temperature;BMP_pressure;BME280_temperature;BME280_humidity;BME280_pressure;Samples;Min_cycle;Max_cycle;Signal;HPM_P1;HPM_P2
2022/02/11 00:02:23;;;;;;;;;;;;;;;4.30;83.37;100790.50;5094121;28;19912;-74
2022/02/11 00:07:20;;;;;;;;;;;;;;;4.23;83.44;100796.84;5077525;28;19954;-73
2022/02/11 00:09:45;;;;;;;;;;;;;;;4.21;83.43;100807.03;5094511;28;19912;-74
2022/02/11 00:12:11;;;;;;;;;;;;;;;4.22;83.62;100805.16;5059303;28;19919;-74
2022/02/11 00:15:37;;;;;;;;;;;;;;;4.22;83.33;100791.66;5075461;28;19916;-74
2022/02/11 00:17:21;;;;;;;;;;;;;;;4.21;83.45;100803.53;5080328;28;19954;-74
2022/02/11 00:19:47;;;;;;;;;;;;;;;4.22;83.33;100797.06;5076203;28;19912;-74
2022/02/11 00:22:12;;;;;;;;;;;;;;;4.21;83.02;100808.91;5077129;28;19911;-74
2022/02/11 00:24:38;;;;;;;;;;;;;;;4.19;83.01;100798.34;5093741;28;20281;-73
2022/02/11 00:27:55;;;;;;;;;;;;;;;4.21;83.01;100790.84;5094497;28;19908;-72
2022/02/11 00:33:09;;;;;;;;;;;;;;;4.25;82.39;100798.47;5087733;28;20422;-73
2022/02/11 00:35:42;;;;;;;;;;;;;;;4.26;82.27;100805.53;5094153;28;19999;-73
2022/02/11 00:38:20;;;;;;;;;;;;;;;4.28;82.31;100815.00;5094161;28;19915;-72
2022/02/11 00:45:50;;;;;;;;;;;;;;;4.35;82.50;100810.34;5093480;28;19912;-73
2022/02/11 01:04:24;;;;;;;;;;;;;;;4.45;83.04;100840.28;5093719;28;19980;-73
2022/02/11 01:06:49;;;;;;;;;;;;;;;4.48;83.03;100846.28;5075687;28;20361;-73
2022/02/11 01:09:14;;;;;;;;;;;;;;;4.49;83.04;100847.94;5075374;28;20413;-74
2022/02/11 01:11:47;;;;;;;;;;;;;;;4.49;82.73;100842.53;5074574;28;20386;-73
2022/02/11 01:14:13;;;;;;;;;;;;;;;4.49;82.93;100835.25;5093734;28;20045;-75
2022/02/11 01:19:14;;;;;;;;;;;;;;;4.44;82.66;100832.41;5093798;28;19912;-74
2022/02/11 01:21:50;;;;;;;;;;;;;;;4.40;82.85;100829.38;5076397;28;19915;-74
2022/02/11 01:26:52;;;;;;;;;;;;;;;4.36;82.82;100847.06;5093666;28;19914;-74
2022/02/11 01:32:38;;;;;;;;;;;;;;;4.35;82.88;100844.63;5092911;28;19912;-74
2022/02/11 01:35:21;;;;;;;;;;;;;;;4.35;82.95;100850.84;5093494;28;19951;-74
2022/02/11 01:41:11;;;;;;;;;;;;;;;4.34;82.73;100851.91;5078202;28;19920;-74
2022/02/11 02:04:27;;;;;;;;;;;;;;;4.21;83.09;100858.31;5096740;28;20327;-72
2022/02/11 02:12:22;;;;;;;;;;;;;;;4.14;83.33;100856.75;5095967;28;19915;-74
2022/02/11 02:25:18;;;;;;;;;;;;;;;4.20;83.43;100855.81;5079163;28;19915;-74
2022/02/11 02:57:23;;;;;;;;;;;;;;;3.99;83.66;100858.00;5080445;28;19930;-73
2022/02/11 03:51:17;;;;;;;;;;;;;;;3.44;83.73;100890.41;5094845;28;19922;-73
2022/02/11 03:54:09;;;;;;;;;;;;;;;3.44;83.49;100895.78;5077580;28;19916;-73
2022/02/11 04:56:40;;;;;;;;;;;;;;;2.40;82.38;100959.16;5080672;28;19908;-72
2022/02/11 05:01:49;;;;;;;;;;;;;;;2.30;82.25;100965.03;5092947;28;19918;-73
2022/02/11 05:04:14;;;;;;;;;;;;;;;2.27;81.94;100965.47;5075570;28;19907;-73
2022/02/11 05:06:39;;;;;;;;;;;;;;;2.26;82.46;100984.50;5075757;28;20003;-71
2022/02/11 05:09:05;;;;;;;;;;;;;;;2.23;81.97;100978.50;5075657;28;19943;-73
2022/02/11 05:11:30;;;;;;;;;;;;;;;2.21;82.18;100987.84;5091972;28;20331;-74
2022/02/11 05:13:55;;;;;;;;;;;;;;;2.18;81.91;100989.09;5093672;28;19914;-73
2022/02/11 05:16:20;;;;;;;;;;;;;;;2.16;81.92;100991.16;5075506;28;20414;-73
2022/02/11 05:18:46;;;;;;;;;;;;;;;2.14;81.98;100998.63;5074633;28;19912;-73
2022/02/11 05:21:11;;;;;;;;;;;;;;;2.11;82.03;100996.34;5093180;28;19919;-73
2022/02/11 05:23:39;;;;;;;;;;;;;;;2.10;82.05;101000.09;5074348;28;19969;-73
2022/02/11 05:26:04;;;;;;;;;;;;;;;2.07;81.63;100997.81;5093352;28;20002;-73
2022/02/11 05:28:29;;;;;;;;;;;;;;;2.07;82.33;100996.97;5093259;28;19944;-73
2022/02/11 05:30:55;;;;;;;;;;;;;;;2.06;81.75;101004.22;5075588;28;19915;-73
2022/02/11 05:33:21;;;;;;;;;;;;;;;2.06;81.66;101016.84;5092297;28;20335;-73
2022/02/11 05:35:46;;;;;;;;;;;;;;;2.05;81.74;101016.03;5093678;28;20329;-73
2022/02/11 05:38:11;;;;;;;;;;;;;;;2.05;81.62;101020.59;5062544;28;19919;-73
2022/02/11 05:40:36;;;;;;;;;;;;;;;2.06;81.67;101022.22;5097439;28;19969;-73
2022/02/11 05:43:01;;;;;;;;;;;;;;;2.05;81.78;101024.09;5096393;28;19944;-73
2022/02/11 05:45:27;;;;;;;;;;;;;;;2.04;81.50;101025.13;5079192;28;19912;-73
2022/02/11 05:47:52;;;;;;;;;;;;;;;2.05;81.86;101024.09;5097295;28;19912;-73
2022/02/11 05:50:17;;;;;;;;;;;;;;;2.06;81.30;101028.44;5079052;28;20279;-73
2022/02/11 05:52:42;;;;;;;;;;;;;;;2.06;81.88;101033.81;5094593;28;20375;-73
2022/02/11 05:55:08;;;;;;;;;;;;;;;2.07;81.57;101040.00;5096458;28;20261;-72
2022/02/11 05:57:33;;;;;;;;;;;;;;;2.07;81.71;101031.94;5079226;28;19929;-73
2022/02/11 05:59:59;;;;;;;;;;;;;;;2.07;81.89;101034.63;5097219;28;19912;-73
2022/02/11 06:02:24;;;;;;;;;;;;;;;2.06;81.91;101039.19;5096126;28;20273;-73
2022/02/11 06:04:50;;;;;;;;;;;;;;;2.07;81.79;101048.91;5079042;28;19953;-73
2022/02/11 06:07:15;;;;;;;;;;;;;;;2.09;81.99;101056.78;5078693;28;19965;-73
2022/02/11 06:09:41;;;;;;;;;;;;;;;2.08;81.65;101058.63;5095918;28;19954;-73
2022/02/11 06:12:06;;;;;;;;;;;;;;;2.09;81.88;101060.28;5095927;28;19912;-73
2022/02/11 06:14:31;;;;;;;;;;;;;;;2.09;81.58;101065.66;5078291;28;19915;-73
2022/02/11 06:16:56;;;;;;;;;;;;;;;2.09;81.53;101064.84;5096720;28;19912;-74
2022/02/11 06:19:22;;;;;;;;;;;;;;;2.10;81.41;101070.03;5096388;28;19915;-74
2022/02/11 06:21:47;;;;;;;;;;;;;;;2.10;81.57;101077.25;5095702;28;19920;-73
2022/02/11 06:24:12;;;;;;;;;;;;;;;2.10;81.62;101077.25;5096291;28;19959;-73
2022/02/11 06:26:37;;;;;;;;;;;;;;;2.10;81.37;101085.31;5095393;28;19916;-73
2022/02/11 06:29:02;;;;;;;;;;;;;;;2.10;81.23;101086.16;5096618;28;20280;-73
2022/02/11 06:31:28;;;;;;;;;;;;;;;2.09;81.19;101089.88;5078156;28;20317;-73
2022/02/11 06:33:53;;;;;;;;;;;;;;;2.10;81.13;101094.22;5077160;28;20373;-73
2022/02/11 06:36:18;;;;;;;;;;;;;;;2.09;80.78;101097.94;5096472;28;19908;-73
2022/02/11 06:38:43;;;;;;;;;;;;;;;2.09;80.50;101097.94;5096274;28;19908;-73
2022/02/11 06:41:09;;;;;;;;;;;;;;;2.11;80.47;101103.94;5078604;28;19922;-72
2022/02/11 06:43:34;;;;;;;;;;;;;;;2.12;80.06;101102.88;5079578;28;19912;-74
2022/02/11 06:45:59;;;;;;;;;;;;;;;2.12;80.11;101112.81;5096197;28;19995;-73
2022/02/11 06:48:25;;;;;;;;;;;;;;;2.11;80.49;101106.63;5093999;28;19912;-72
2022/02/11 06:50:53;;;;;;;;;;;;;;;2.11;79.57;101105.81;5096461;28;19998;-73
2022/02/11 06:53:18;;;;;;;;;;;;;;;2.09;79.86;101119.44;5095023;28;19964;-73
2022/02/11 06:55:44;;;;;;;;;;;;;;;2.07;79.54;101123.38;5077850;28;19999;-73
2022/02/11 06:58:10;;;;;;;;;;;;;;;2.03;79.29;101131.03;5095029;28;20374;-73
2022/02/11 07:00:35;;;;;;;;;;;;;;;1.99;79.57;101127.09;5095547;28;19912;-73
2022/02/11 07:03:00;;;;;;;;;;;;;;;1.95;79.51;101128.56;5094582;28;19912;-73
2022/02/11 07:05:27;;;;;;;;;;;;;;;1.92;78.95;101139.75;5077732;28;19908;-73
2022/02/11 07:07:53;;;;;;;;;;;;;;;1.88;78.65;101142.03;5077816;28;20334;-73
2022/02/11 07:10:18;;;;;;;;;;;;;;;1.83;78.39;101155.28;5077737;28;19994;-73
2022/02/11 07:12:43;;;;;;;;;;;;;;;1.79;78.19;101156.69;5068954;28;19918;-73
2022/02/11 07:15:09;;;;;;;;;;;;;;;1.76;78.30;101157.13;5095487;28;19907;-73
2022/02/11 07:17:34;;;;;;;;;;;;;;;1.74;78.62;101159.19;5095346;28;19988;-73
2022/02/11 07:19:59;;;;;;;;;;;;;;;1.73;78.13;101157.53;5095179;28;19916;-74
2022/02/11 07:22:25;;;;;;;;;;;;;;;1.73;78.24;101170.97;5072918;28;20304;-73
2022/02/11 07:24:53;;;;;;;;;;;;;;;1.72;78.30;101174.69;5092231;28;19965;-73
2022/02/11 07:27:18;;;;;;;;;;;;;;;1.68;78.34;101168.88;5077368;28;20263;-73
2022/02/11 07:29:43;;;;;;;;;;;;;;;1.66;78.11;101178.19;5076458;28;19967;-72
2022/02/11 07:32:10;;;;;;;;;;;;;;;1.64;77.75;101186.47;5076378;28;19912;-73
2022/02/11 07:34:36;;;;;;;;;;;;;;;1.64;77.98;101185.66;5077494;28;20276;-73
2022/02/11 07:37:02;;;;;;;;;;;;;;;1.61;78.44;101192.25;5095229;28;20021;-73
2022/02/11 07:39:29;;;;;;;;;;;;;;;1.60;77.26;101197.81;5077528;28;20370;-72
2022/02/11 07:41:55;;;;;;;;;;;;;;;1.60;77.40;101195.97;5094306;28;19908;-73
2022/02/11 07:44:20;;;;;;;;;;;;;;;1.59;77.74;101199.69;5094800;28;20356;-73
2022/02/11 07:46:45;;;;;;;;;;;;;;;1.59;77.68;101212.31;5094689;28;20353;-73
2022/02/11 07:49:10;;;;;;;;;;;;;;;1.58;78.07;101211.47;5094831;28;20360;-73
2022/02/11 07:51:35;;;;;;;;;;;;;;;1.57;77.04;101217.88;5094804;28;20352;-72
2022/02/11 07:54:01;;;;;;;;;;;;;;;1.59;77.63;101231.94;5075583;28;20336;-73
2022/02/11 07:56:26;;;;;;;;;;;;;;;1.60;77.47;101244.34;5094240;28;19962;-74
2022/02/11 07:58:51;;;;;;;;;;;;;;;1.65;77.59;101258.00;5094630;28;19914;-73
2022/02/11 08:01:19;;;;;;;;;;;;;;;1.67;76.42;101258.63;5092786;28;20331;-73
2022/02/11 08:03:44;;;;;;;;;;;;;;;1.70;76.91;101260.91;5074330;28;20011;-73
2022/02/11 08:06:11;;;;;;;;;;;;;;;1.71;76.67;101273.31;5094405;28;19951;-74
2022/02/11 08:08:36;;;;;;;;;;;;;;;1.74;76.63;101282.81;5094682;28;19907;-74
2022/02/11 08:11:02;;;;;;;;;;;;;;;1.76;76.56;101281.59;5094728;28;19926;-74
2022/02/11 08:13:27;;;;;;;;;;;;;;;1.82;76.57;101287.19;5093155;28;20018;-74
2022/02/11 08:15:52;;;;;;;;;;;;;;;1.86;76.54;101297.34;5094376;28;19912;-74
2022/02/11 08:18:17;;;;;;;;;;;;;;;1.89;76.31;101291.56;5094272;28;19967;-73
2022/02/11 08:20:43;;;;;;;;;;;;;;;1.89;76.06;101296.94;5094262;28;19919;-73
2022/02/11 08:23:08;;;;;;;;;;;;;;;1.92;75.38;101306.44;5093181;28;19911;-74
2022/02/11 08:25:34;;;;;;;;;;;;;;;1.94;75.48;101315.16;5075851;28;19923;-73
2022/02/11 08:27:59;;;;;;;;;;;;;;;1.98;75.14;101317.22;5092451;28;19912;-74
2022/02/11 08:30:24;;;;;;;;;;;;;;;2.05;75.13;101317.25;5076116;28;19908;-73
2022/02/11 08:32:50;;;;;;;;;;;;;;;2.17;75.41;101331.72;5071720;28;19913;-73
2022/02/11 08:35:15;;;;;;;;;;;;;;;2.28;74.94;101330.28;5092716;28;19907;-73
2022/02/11 08:37:40;;;;;;;;;;;;;;;2.38;74.56;101341.47;5075927;28;20197;-73
2022/02/11 08:40:06;;;;;;;;;;;;;;;2.47;73.75;101343.97;5075530;28;19919;-74
2022/02/11 08:42:31;;;;;;;;;;;;;;;2.53;73.85;101352.03;5092803;28;19912;-74
2022/02/11 08:44:56;;;;;;;;;;;;;;;2.59;73.46;101350.38;5093796;28;19958;-74
2022/02/11 08:47:22;;;;;;;;;;;;;;;2.63;72.95;101363.22;5091307;28;19916;-74
2022/02/11 08:49:47;;;;;;;;;;;;;;;2.67;72.60;101374.41;5071492;28;20021;-74
2022/02/11 08:52:12;;;;;;;;;;;;;;;2.71;72.43;101372.97;5091192;28;19920;-73
2022/02/11 08:54:37;;;;;;;;;;;;;;;2.76;71.62;101383.13;5093829;28;19912;-74
2022/02/11 08:57:03;;;;;;;;;;;;;;;2.73;71.85;101380.81;5092685;28;19919;-73
2022/02/11 08:59:28;;;;;;;;;;;;;;;2.68;71.21;101386.84;5093400;28;19915;-73
2022/02/11 09:01:54;;;;;;;;;;;;;;;2.60;70.92;101395.94;5075132;28;20315;-73
2022/02/11 09:04:19;;;;;;;;;;;;;;;2.51;70.23;101393.66;5075055;28;19918;-72
2022/02/11 09:06:46;;;;;;;;;;;;;;;2.43;70.03;101390.13;5093732;28;20404;-73
2022/02/11 09:09:11;;;;;;;;;;;;;;;2.39;69.59;101409.59;5075258;28;19922;-73
2022/02/11 09:11:36;;;;;;;;;;;;;;;2.36;70.02;101413.50;5090104;28;19915;-74
2022/02/11 09:14:02;;;;;;;;;;;;;;;2.35;69.84;101424.50;5074694;28;19922;-74
2022/02/11 09:16:27;;;;;;;;;;;;;;;2.33;69.63;101426.53;5093284;28;19912;-74
2022/02/11 09:18:52;;;;;;;;;;;;;;;2.28;68.78;101429.84;5093568;28;20003;-75
2022/02/11 09:21:17;;;;;;;;;;;;;;;2.27;69.03;101425.50;5093503;28;19912;-74
2022/02/11 09:23:43;;;;;;;;;;;;;;;2.27;68.77;101433.56;5092301;28;19923;-74
2022/02/11 09:26:08;;;;;;;;;;;;;;;2.25;68.57;101424.88;5092572;28;19998;-73
2022/02/11 09:28:33;;;;;;;;;;;;;;;2.22;68.23;101434.16;5093566;28;19935;-74
2022/02/11 09:30:59;;;;;;;;;;;;;;;2.20;67.77;101438.91;5093372;28;19908;-74
2022/02/11 09:33:24;;;;;;;;;;;;;;;2.19;67.06;101447.22;5092236;28;19933;-73
2022/02/11 09:35:49;;;;;;;;;;;;;;;2.18;67.33;101449.06;5075088;28;20006;-74
2022/02/11 09:38:22;;;;;;;;;;;;;;;2.19;66.96;101441.81;5075030;28;19987;-74
2022/02/11 09:40:50;;;;;;;;;;;;;;;2.18;66.46;101462.53;5093164;28;19920;-74
2022/02/11 09:43:17;;;;;;;;;;;;;;;2.18;66.39;101467.91;5091362;28;19965;-73
2022/02/11 09:45:42;;;;;;;;;;;;;;;2.18;66.00;101467.06;5093264;28;19908;-74
2022/02/11 09:48:08;;;;;;;;;;;;;;;2.17;65.80;101476.97;5075137;28;20348;-74
2022/02/11 09:50:33;;;;;;;;;;;;;;;2.16;64.58;101478.03;5075098;28;19915;-73
2022/02/11 09:52:58;;;;;;;;;;;;;;;2.15;64.75;101479.03;5092222;28;20311;-74
2022/02/11 09:55:33;;;;;;;;;;;;;;;2.13;64.29;101486.50;5074780;28;19916;-74
2022/02/11 09:58:02;;;;;;;;;;;;;;;2.15;64.22;101495.19;5092002;28;19937;-74
2022/02/11 10:00:28;;;;;;;;;;;;;;;2.15;63.88;101489.78;5074731;28;19916;-74
2022/02/11 10:02:54;;;;;;;;;;;;;;;2.16;63.73;101496.84;5073859;28;19939;-74
2022/02/11 10:05:30;;;;;;;;;;;;;;;2.14;63.18;101504.28;5074942;28;19912;-74
2022/02/11 10:07:55;;;;;;;;;;;;;;;2.15;62.62;101507.81;5074742;28;20000;-73
2022/02/11 10:10:38;;;;;;;;;;;;;;;2.14;62.07;101509.66;5093064;28;20357;-74
2022/02/11 10:13:31;;;;;;;;;;;;;;;2.15;62.48;101530.16;5091653;28;19916;-74
2022/02/11 10:16:02;;;;;;;;;;;;;;;2.18;61.95;101531.59;5091125;28;19908;-73
2022/02/11 10:18:31;;;;;;;;;;;;;;;2.18;61.90;101529.78;5074978;28;19926;-73
2022/02/11 10:21:00;;;;;;;;;;;;;;;2.20;62.42;101535.75;5074860;28;19912;-73
2022/02/11 10:23:26;;;;;;;;;;;;;;;2.20;61.85;101533.06;5075199;28;20390;-73
2022/02/11 10:25:51;;;;;;;;;;;;;;;2.23;62.27;101543.44;5096486;28;20376;-72
2022/02/11 10:28:27;;;;;;;;;;;;;;;2.25;62.60;101547.81;5075908;28;19916;-73
2022/02/11 10:31:05;;;;;;;;;;;;;;;2.27;62.87;101551.94;5077522;28;20083;-73
2022/02/11 10:33:56;;;;;;;;;;;;;;;2.26;61.63;101547.59;5079550;28;19908;-73
2022/02/11 10:36:22;;;;;;;;;;;;;;;2.26;61.54;101555.66;5067396;28;19909;-73
2022/02/11 10:38:52;;;;;;;;;;;;;;;2.26;60.78;101569.09;5078002;28;19912;-73
2022/02/11 10:41:20;;;;;;;;;;;;;;;2.27;61.15;101567.28;5077283;28;19916;-73
2022/02/11 10:43:48;;;;;;;;;;;;;;;2.30;60.84;101573.06;5096329;28;19994;-73
2022/02/11 10:46:17;;;;;;;;;;;;;;;2.31;60.42;101584.66;5078339;28;19907;-73
2022/02/11 10:48:42;;;;;;;;;;;;;;;2.32;60.40;101586.31;5095301;28;19934;-73
2022/02/11 10:51:08;;;;;;;;;;;;;;;2.35;60.47;101592.16;5076212;28;19916;-73
2022/02/11 10:53:39;;;;;;;;;;;;;;;2.37;59.81;101594.63;5077155;28;20086;-74
2022/02/11 10:56:04;;;;;;;;;;;;;;;2.40;59.78;101604.97;5078820;28;19965;-73
2022/02/11 10:58:32;;;;;;;;;;;;;;;2.43;59.87;101610.81;5077824;28;19911;-73
2022/02/11 11:01:00;;;;;;;;;;;;;;;2.47;59.76;101616.63;5077078;28;19916;-73
2022/02/11 11:03:25;;;;;;;;;;;;;;;2.49;59.10;101619.13;5078238;28;19907;-73
2022/02/11 11:05:51;;;;;;;;;;;;;;;2.53;59.49;101613.13;5077478;28;20273;-73
2022/02/11 11:08:16;;;;;;;;;;;;;;;2.58;59.07;101623.31;5077792;28;19915;-73
2022/02/11 11:10:43;;;;;;;;;;;;;;;2.64;59.20;101630.56;5073403;28;19912;-73
2022/02/11 11:13:14;;;;;;;;;;;;;;;2.66;59.20;101634.72;5094259;28;19957;-73
2022/02/11 11:15:43;;;;;;;;;;;;;;;2.72;58.81;101634.97;5077426;28;20356;-73
2022/02/11 11:18:10;;;;;;;;;;;;;;;2.79;59.40;101652.81;5095327;28;20006;-73
2022/02/11 11:20:35;;;;;;;;;;;;;;;2.89;59.45;101647.03;5094677;28;19916;-73
2022/02/11 11:23:02;;;;;;;;;;;;;;;2.98;59.51;101650.41;5094102;28;19912;-73
2022/02/11 11:26:03;;;;;;;;;;;;;;;3.04;59.24;101658.50;5077248;28;19943;-73
2022/02/11 11:28:48;;;;;;;;;;;;;;;3.10;59.01;101652.28;5076233;28;19915;-73
2022/02/11 11:31:21;;;;;;;;;;;;;;;3.16;58.81;101669.50;5076073;28;20538;-73
2022/02/11 11:33:46;;;;;;;;;;;;;;;3.26;59.09;101669.94;5090099;28;20432;-73
2022/02/11 11:36:12;;;;;;;;;;;;;;;3.35;59.02;101667.88;5095332;28;19943;-73
2022/02/11 11:38:43;;;;;;;;;;;;;;;3.38;58.25;101670.16;5076903;28;19912;-73
2022/02/11 11:41:11;;;;;;;;;;;;;;;3.41;58.18;101667.09;5076413;28;19984;-73
2022/02/11 11:43:39;;;;;;;;;;;;;;;3.46;57.92;101663.75;5094766;28;20342;-73
2022/02/11 11:46:14;;;;;;;;;;;;;;;3.50;57.23;101671.25;5075809;28;20292;-73
2022/02/11 11:48:40;;;;;;;;;;;;;;;3.51;57.20;101675.59;5094274;28;19915;-73
2022/02/11 11:51:06;;;;;;;;;;;;;;;3.53;57.24;101680.78;5066684;28;19912;-73
2022/02/11 11:53:31;;;;;;;;;;;;;;;3.58;56.90;101688.28;5090061;28;19915;-73
2022/02/11 11:55:56;;;;;;;;;;;;;;;3.63;57.15;101683.06;5094665;28;19908;-73
2022/02/11 11:58:32;;;;;;;;;;;;;;;3.67;56.81;101687.03;5094607;28;19914;-73
2022/02/11 12:01:03;;;;;;;;;;;;;;;3.67;56.94;101695.94;5074736;28;19939;-73
2022/02/11 12:03:31;;;;;;;;;;;;;;;3.71;56.87;101704.44;5062485;28;19960;-73
2022/02/11 12:06:00;;;;;;;;;;;;;;;3.76;57.18;101701.97;5089880;28;20361;-73
2022/02/11 12:08:28;;;;;;;;;;;;;;;3.76;56.67;101712.75;5076901;28;19943;-73
2022/02/11 12:10:55;;;;;;;;;;;;;;;3.85;56.80;101711.53;5093387;28;20382;-72
2022/02/11 12:13:26;;;;;;;;;;;;;;;3.87;56.22;101714.00;5077345;28;20365;-73
2022/02/11 12:15:52;;;;;;;;;;;;;;;3.89;56.26;101723.56;5076140;28;19931;-73
2022/02/11 12:18:17;;;;;;;;;;;;;;;3.99;56.29;101725.88;5066516;28;19916;-73
2022/02/11 12:20:44;;;;;;;;;;;;;;;4.03;56.10;101729.78;5088138;28;19916;-73
2022/02/11 12:28:38;;;;;;;;;;;;;;;4.24;54.92;101742.25;5094103;28;19914;-73
2022/02/11 12:31:06;;;;;;;;;;;;;;;4.36;55.13;101753.25;5092675;28;19966;-73
2022/02/11 12:33:32;;;;;;;;;;;;;;;4.58;55.11;101748.44;5075155;28;19911;-73
2022/02/11 12:36:06;;;;;;;;;;;;;;;4.68;54.72;101752.38;5094105;28;20383;-73
2022/02/11 12:38:31;;;;;;;;;;;;;;;4.80;54.23;101766.09;5075742;28;19931;-73
2022/02/11 12:40:57;;;;;;;;;;;;;;;4.91;54.09;101775.41;5092093;28;20372;-73
2022/02/11 12:43:25;;;;;;;;;;;;;;;5.01;54.06;101773.09;5075540;28;20640;-73
2022/02/11 12:45:50;;;;;;;;;;;;;;;5.13;53.83;101778.69;5075513;28;20341;-73
2022/02/11 12:48:15;;;;;;;;;;;;;;;5.31;53.83;101776.09;5074802;28;19951;-73
2022/02/11 12:50:44;;;;;;;;;;;;;;;5.45;53.66;101782.28;5092693;28;19920;-73
2022/02/11 12:53:14;;;;;;;;;;;;;;;5.53;53.17;101773.09;5075552;28;19957;-73
2022/02/11 12:55:39;;;;;;;;;;;;;;;5.62;52.88;101785.34;5075695;28;19969;-73
2022/02/11 12:58:08;;;;;;;;;;;;;;;5.76;52.69;101795.03;5075301;28;19908;-72
2022/02/11 13:00:38;;;;;;;;;;;;;;;5.85;52.50;101797.47;5073964;28;19915;-74
2022/02/11 13:03:03;;;;;;;;;;;;;;;5.98;52.33;101803.66;5075387;28;19908;-73
2022/02/11 13:05:29;;;;;;;;;;;;;;;6.13;52.35;101805.22;5075294;28;20284;-73
2022/02/11 13:07:55;;;;;;;;;;;;;;;6.39;52.22;101799.63;5075062;28;19907;-73
2022/02/11 13:10:21;;;;;;;;;;;;;;;6.53;51.84;101800.34;5092503;28;20254;-74
2022/02/11 13:12:47;;;;;;;;;;;;;;;6.70;51.78;101800.59;5075232;28;19990;-73
2022/02/11 13:15:13;;;;;;;;;;;;;;;6.77;51.25;101816.81;5093569;28;19958;-73
2022/02/11 13:17:38;;;;;;;;;;;;;;;7.00;50.94;101816.16;5093270;28;19965;-73
2022/02/11 13:20:04;;;;;;;;;;;;;;;7.21;50.58;101823.84;5074982;28;19912;-73
2022/02/11 13:22:30;;;;;;;;;;;;;;;7.42;50.46;101825.28;5092818;28;19912;-73
2022/02/11 13:24:55;;;;;;;;;;;;;;;7.63;50.63;101832.09;5093009;28;19959;-74
2022/02/11 13:27:20;;;;;;;;;;;;;;;7.98;50.23;101845.84;5075106;28;20295;-73
2022/02/11 13:29:59;;;;;;;;;;;;;;;8.20;49.97;101845.31;5093010;28;19915;-73
2022/02/11 13:32:27;;;;;;;;;;;;;;;8.37;50.16;101854.44;5092860;28;19919;-73
2022/02/11 13:35:02;;;;;;;;;;;;;;;8.63;49.65;101846.97;5093417;28;19907;-74
2022/02/11 13:37:43;;;;;;;;;;;;;;;8.80;49.53;101847.94;5093209;28;19944;-74
2022/02/11 13:40:13;;;;;;;;;;;;;;;8.91;49.33;101853.63;5074435;28;20283;-73
2022/02/11 13:42:38;;;;;;;;;;;;;;;9.06;49.06;101848.53;5082973;28;20278;-74
2022/02/11 13:45:04;;;;;;;;;;;;;;;9.12;48.45;101855.75;5075058;28;19954;-73
2022/02/11 13:47:29;;;;;;;;;;;;;;;9.25;48.54;101855.50;5093023;28;19908;-73
2022/02/11 13:50:01;;;;;;;;;;;;;;;9.51;48.18;101856.84;5075108;28;19908;-73
2022/02/11 13:55:12;;;;;;;;;;;;;;;10.18;47.52;101874.53;5076546;28;19933;-73
2022/02/11 13:57:38;;;;;;;;;;;;;;;10.57;46.96;101869.22;5094681;28;19912;-73
2022/02/11 14:00:22;;;;;;;;;;;;;;;10.95;46.00;101879.38;5096732;28;19920;-73
2022/02/11 14:02:47;;;;;;;;;;;;;;;11.04;45.03;101883.34;5093888;28;19931;-73
2022/02/11 14:05:12;;;;;;;;;;;;;;;11.06;44.77;101892.09;5078789;28;19919;-73
2022/02/11 14:07:37;;;;;;;;;;;;;;;11.15;44.76;101905.31;5096612;28;19912;-73
2022/02/11 14:10:21;;;;;;;;;;;;;;;11.36;44.49;101890.06;5078697;28;19939;-73
2022/02/11 14:12:46;;;;;;;;;;;;;;;11.50;44.45;101903.09;5092291;28;19919;-73
2022/02/11 14:15:12;;;;;;;;;;;;;;;11.74;44.28;101903.69;5096807;28;19911;-73
2022/02/11 14:17:39;;;;;;;;;;;;;;;11.75;43.61;101907.25;5096582;28;19908;-73
2022/02/11 14:20:04;;;;;;;;;;;;;;;11.83;43.30;101912.25;5095474;28;19912;-73
2022/02/11 14:22:30;;;;;;;;;;;;;;;12.05;43.24;101915.00;5095259;28;19961;-73
2022/02/11 14:24:55;;;;;;;;;;;;;;;12.32;43.06;101914.22;5096153;28;20328;-73
2022/02/11 14:27:21;;;;;;;;;;;;;;;12.35;42.05;101930.09;5096383;28;20291;-73
2022/02/11 14:29:46;;;;;;;;;;;;;;;12.32;42.00;101925.16;5096229;28;19965;-73
2022/02/11 14:32:11;;;;;;;;;;;;;;;12.58;42.22;101934.44;5081424;28;20375;-73
2022/02/11 14:34:36;;;;;;;;;;;;;;;12.71;42.33;101950.41;5095619;28;19947;-74
2022/02/11 14:37:01;;;;;;;;;;;;;;;12.61;41.90;101951.16;5096020;28;19915;-73
2022/02/11 14:39:27;;;;;;;;;;;;;;;12.52;42.31;101957.34;5078233;28;19915;-74
2022/02/11 14:41:55;;;;;;;;;;;;;;;12.48;42.56;101958.97;5094228;28;19920;-73
2022/02/11 14:44:21;;;;;;;;;;;;;;;12.37;42.04;101953.38;5077836;28;19937;-73
2022/02/11 14:46:46;;;;;;;;;;;;;;;12.04;41.60;101962.56;5096164;28;19907;-73
2022/02/11 14:49:12;;;;;;;;;;;;;;;11.90;41.34;101966.78;5076400;28;19916;-72
2022/02/11 14:51:37;;;;;;;;;;;;;;;11.75;41.56;101972.81;5094915;28;20195;-72
2022/02/11 14:54:05;;;;;;;;;;;;;;;11.63;41.41;101974.84;5095830;28;20426;-71
2022/02/11 14:56:30;;;;;;;;;;;;;;;11.59;41.36;101976.41;5096050;28;20010;-74
2022/02/11 14:58:56;;;;;;;;;;;;;;;11.61;41.52;101979.72;5095941;28;19908;-73
2022/02/11 15:01:21;;;;;;;;;;;;;;;11.51;41.64;101986.72;5094791;28;19912;-74
2022/02/11 15:03:46;;;;;;;;;;;;;;;11.42;41.59;101982.72;5077754;28;19956;-72
2022/02/11 15:06:12;;;;;;;;;;;;;;;11.45;41.77;101990.41;5094527;28;19912;-72
2022/02/11 15:08:37;;;;;;;;;;;;;;;11.62;42.07;101992.28;5094924;28;19965;-73
2022/02/11 15:11:02;;;;;;;;;;;;;;;11.63;42.15;101988.50;5095045;28;20022;-73
2022/02/11 15:13:28;;;;;;;;;;;;;;;11.43;42.01;101994.47;5095473;28;19923;-74
2022/02/11 15:15:53;;;;;;;;;;;;;;;10.71;42.71;101998.75;5095387;28;20314;-73
2022/02/11 15:18:18;;;;;;;;;;;;;;;9.84;43.14;102007.03;5077444;28;20276;-73
2022/02/11 15:20:44;;;;;;;;;;;;;;;9.06;43.85;102012.59;5075564;28;19927;-74
2022/02/11 15:23:10;;;;;;;;;;;;;;;8.37;44.38;102003.91;5095311;28;19912;-73
2022/02/11 15:25:35;;;;;;;;;;;;;;;7.72;45.37;102014.50;5095215;28;20280;-73
2022/02/11 15:28:00;;;;;;;;;;;;;;;7.11;45.67;102008.78;5095375;28;19923;-72
2022/02/11 15:30:25;;;;;;;;;;;;;;;6.57;45.85;102006.63;5095067;28;20368;-72
2022/02/11 15:32:51;;;;;;;;;;;;;;;6.16;46.45;102024.13;5084203;28;19908;-73
2022/02/11 15:35:16;;;;;;;;;;;;;;;5.85;47.05;102022.09;5093787;28;20288;-73
2022/02/11 15:37:41;;;;;;;;;;;;;;;5.71;47.16;102016.72;5095029;28;20277;-73
2022/02/11 15:40:07;;;;;;;;;;;;;;;5.56;47.50;102018.81;5094922;28;19927;-72
2022/02/11 15:42:33;;;;;;;;;;;;;;;5.36;47.65;102023.44;5075898;28;20284;-73
2022/02/11 15:44:59;;;;;;;;;;;;;;;5.22;47.79;102026.13;5094739;28;20330;-73
2022/02/11 15:47:25;;;;;;;;;;;;;;;5.00;48.20;102027.38;5095163;28;19982;-73
2022/02/11 15:49:51;;;;;;;;;;;;;;;4.82;48.66;102036.06;5094876;28;19953;-73
2022/02/11 15:52:16;;;;;;;;;;;;;;;4.62;49.14;102030.59;5093733;28;19962;-74
2022/02/11 15:54:41;;;;;;;;;;;;;;;4.29;49.49;102042.13;5095033;28;19947;-73
2022/02/11 15:57:06;;;;;;;;;;;;;;;3.98;49.97;102038.03;5094620;28;19916;-73
2022/02/11 15:59:32;;;;;;;;;;;;;;;3.74;50.51;102049.31;5094534;28;19915;-73
2022/02/11 16:01:57;;;;;;;;;;;;;;;3.54;50.92;102063.44;5075465;28;19911;-73
2022/02/11 16:04:22;;;;;;;;;;;;;;;3.40;50.99;102063.56;5094438;28;19914;-73
2022/02/11 16:06:47;;;;;;;;;;;;;;;3.24;51.63;102061.94;5087481;28;19916;-72
2022/02/11 16:09:13;;;;;;;;;;;;;;;3.13;51.63;102063.31;5088842;28;19908;-73
2022/02/11 16:11:38;;;;;;;;;;;;;;;3.00;52.06;102072.13;5093343;28;19922;-73
2022/02/11 16:14:03;;;;;;;;;;;;;;;2.90;52.03;102079.66;5076367;28;19948;-73
2022/02/11 16:16:28;;;;;;;;;;;;;;;2.80;52.41;102074.56;5076037;28;20392;-73
2022/02/11 16:18:54;;;;;;;;;;;;;;;2.73;52.81;102075.53;5094354;28;19947;-73
2022/02/11 16:21:19;;;;;;;;;;;;;;;2.64;53.45;102070.25;5091267;28;19947;-73
2022/02/11 16:23:44;;;;;;;;;;;;;;;2.57;52.99;102079.31;5094044;28;19916;-73
2022/02/11 16:26:10;;;;;;;;;;;;;;;2.51;53.49;102080.88;5076022;28;19929;-72
2022/02/11 16:28:36;;;;;;;;;;;;;;;2.45;53.44;102087.00;5076140;28;19934;-73
2022/02/11 16:31:14;;;;;;;;;;;;;;;2.39;53.47;102085.06;5093385;28;19920;-73
2022/02/11 16:33:39;;;;;;;;;;;;;;;2.37;53.51;102089.78;5094068;28;19965;-73